sensor_id;sensor_type;location;lat;lon;timestamp;pressure;altitude;pressure_sealevel;temperature;humidity
64230;BME280;50547;49.498;0.092;2023-08-24T00:00:55;1009.93;;;23.83;73.15
64230;BME280;50547;49.498;0.092;2023-08-24T00:03:25;1009.94;;;23.85;73.19
64230;BME280;50547;49.498;0.092;2023-08-24T00:05:54;1009.91;;;23.88;73.27
64230;BME280;50547;49.498;0.092;2023-08-24T00:08:21;1009.87;;;23.89;73.36
64230;BME280;50547;49.498;0.092;2023-08-24T00:10:50;1009.81;;;23.85;73.54
64230;BME280;50547;49.498;0.092;2023-08-24T00:13:20;1009.83;;;23.89;73.61
64230;BME280;50547;49.498;0.092;2023-08-24T00:15:49;1009.83;;;23.89;73.71
64230;BME280;50547;49.498;0.092;2023-08-24T00:18:58;1009.79;;;24.00;73.11
64230;BME280;50547;49.498;0.092;2023-08-24T00:21:27;1009.71;;;23.99;73.26
64230;BME280;50547;49.498;0.092;2023-08-24T00:23:56;1009.69;;;24.00;73.35
64230;BME280;50547;49.498;0.092;2023-08-24T00:26:49;1009.73;;;23.97;73.53
64230;BME280;50547;49.498;0.092;2023-08-24T00:29:18;1009.67;;;23.98;73.57
64230;BME280;50547;49.498;0.092;2023-08-24T00:31:47;1009.55;;;23.95;73.80
64230;BME280;50547;49.498;0.092;2023-08-24T00:34:16;1009.63;;;23.96;74.00
64230;BME280;50547;49.498;0.092;2023-08-24T00:37:16;1009.67;;;24.02;73.82
64230;BME280;50547;49.498;0.092;2023-08-24T00:39:45;1009.63;;;24.10;73.50
64230;BME280;50547;49.498;0.092;2023-08-24T00:42:14;1009.55;;;24.15;73.57
64230;BME280;50547;49.498;0.092;2023-08-24T00:44:43;1009.55;;;24.20;73.38
64230;BME280;50547;49.498;0.092;2023-08-24T00:47:12;1009.49;;;24.17;73.62
64230;BME280;50547;49.498;0.092;2023-08-24T00:49:42;1009.49;;;24.23;73.33
64230;BME280;50547;49.498;0.092;2023-08-24T00:52:11;1009.49;;;24.22;73.39
64230;BME280;50547;49.498;0.092;2023-08-24T00:54:41;1009.51;;;24.23;73.30
64230;BME280;50547;49.498;0.092;2023-08-24T00:57:11;1009.47;;;24.15;73.72
64230;BME280;50547;49.498;0.092;2023-08-24T00:59:40;1009.44;;;24.12;73.78
64230;BME280;50547;49.498;0.092;2023-08-24T01:02:10;1009.36;;;23.99;74.48
64230;BME280;50547;49.498;0.092;2023-08-24T01:04:41;1009.38;;;24.02;74.39
64230;BME280;50547;49.498;0.092;2023-08-24T01:07:11;1009.30;;;24.05;74.37
64230;BME280;50547;49.498;0.092;2023-08-24T01:09:40;1009.30;;;24.02;74.80
64230;BME280;50547;49.498;0.092;2023-08-24T01:12:17;1009.30;;;24.04;74.92
64230;BME280;50547;49.498;0.092;2023-08-24T01:14:55;1009.30;;;24.08;74.75
64230;BME280;50547;49.498;0.092;2023-08-24T01:17:27;1009.30;;;24.13;74.59
64230;BME280;50547;49.498;0.092;2023-08-24T01:19:59;1009.28;;;24.10;75.00
64230;BME280;50547;49.498;0.092;2023-08-24T01:22:34;1009.24;;;24.12;75.16
64230;BME280;50547;49.498;0.092;2023-08-24T01:25:12;1009.22;;;24.17;75.11
64230;BME280;50547;49.498;0.092;2023-08-24T01:27:43;1009.28;;;24.20;75.09
64230;BME280;50547;49.498;0.092;2023-08-24T01:30:14;1009.30;;;24.26;74.92
64230;BME280;50547;49.498;0.092;2023-08-24T01:32:44;1009.24;;;24.28;75.07
64230;BME280;50547;49.498;0.092;2023-08-24T01:35:13;1009.26;;;24.25;75.65
64230;BME280;50547;49.498;0.092;2023-08-24T01:37:42;1009.28;;;24.35;75.24
64230;BME280;50547;49.498;0.092;2023-08-24T01:40:16;1009.28;;;24.39;75.34
64230;BME280;50547;49.498;0.092;2023-08-24T01:42:51;1009.30;;;24.49;75.14
64230;BME280;50547;49.498;0.092;2023-08-24T01:45:24;1009.34;;;24.67;74.39
64230;BME280;50547;49.498;0.092;2023-08-24T01:47:55;1009.40;;;24.88;73.64
64230;BME280;50547;49.498;0.092;2023-08-24T01:50:24;1009.55;;;25.09;72.17
64230;BME280;50547;49.498;0.092;2023-08-24T01:52:54;1009.61;;;24.88;73.33
64230;BME280;50547;49.498;0.092;2023-08-24T01:55:24;1009.55;;;24.44;75.99
64230;BME280;50547;49.498;0.092;2023-08-24T01:57:55;1009.55;;;24.55;75.52
64230;BME280;50547;49.498;0.092;2023-08-24T02:00:24;1009.44;;;24.50;75.36
64230;BME280;50547;49.498;0.092;2023-08-24T02:02:53;1009.42;;;24.52;74.93
64230;BME280;50547;49.498;0.092;2023-08-24T02:05:22;1009.40;;;24.56;74.62
64230;BME280;50547;49.498;0.092;2023-08-24T02:07:52;1009.36;;;24.66;74.26
64230;BME280;50547;49.498;0.092;2023-08-24T02:10:21;1009.28;;;24.68;74.26
64230;BME280;50547;49.498;0.092;2023-08-24T02:12:50;1009.24;;;24.62;74.46
64230;BME280;50547;49.498;0.092;2023-08-24T02:15:19;1009.16;;;24.31;75.96
64230;BME280;50547;49.498;0.092;2023-08-24T02:17:48;1009.16;;;24.03;77.28
64230;BME280;50547;49.498;0.092;2023-08-24T02:20:17;1009.20;;;23.77;78.13
64230;BME280;50547;49.498;0.092;2023-08-24T02:22:46;1009.20;;;23.71;77.90
64230;BME280;50547;49.498;0.092;2023-08-24T02:25:16;1009.12;;;23.39;78.71
64230;BME280;50547;49.498;0.092;2023-08-24T02:27:45;1009.00;;;23.24;79.01
64230;BME280;50547;49.498;0.092;2023-08-24T02:30:14;1008.89;;;22.97;80.13
64230;BME280;50547;49.498;0.092;2023-08-24T02:32:44;1008.83;;;22.81;80.63
64230;BME280;50547;49.498;0.092;2023-08-24T02:35:13;1008.79;;;22.73;80.43
64230;BME280;50547;49.498;0.092;2023-08-24T02:37:42;1008.73;;;22.83;79.63
64230;BME280;50547;49.498;0.092;2023-08-24T02:40:11;1008.75;;;22.67;80.45
64230;BME280;50547;49.498;0.092;2023-08-24T02:42:40;1008.77;;;22.62;80.64
64230;BME280;50547;49.498;0.092;2023-08-24T02:45:10;1008.73;;;22.54;81.08
64230;BME280;50547;49.498;0.092;2023-08-24T02:47:39;1008.69;;;22.54;80.91
64230;BME280;50547;49.498;0.092;2023-08-24T02:50:09;1008.67;;;22.48;81.22
64230;BME280;50547;49.498;0.092;2023-08-24T02:52:38;1008.61;;;22.41;81.66
64230;BME280;50547;49.498;0.092;2023-08-24T02:55:08;1008.53;;;22.41;81.52
64230;BME280;50547;49.498;0.092;2023-08-24T02:57:38;1008.48;;;22.41;81.41
64230;BME280;50547;49.498;0.092;2023-08-24T03:00:08;1008.42;;;22.33;81.88
64230;BME280;50547;49.498;0.092;2023-08-24T03:02:37;1008.34;;;22.40;81.59
64230;BME280;50547;49.498;0.092;2023-08-24T03:05:07;1008.34;;;22.40;81.61
64230;BME280;50547;49.498;0.092;2023-08-24T03:07:36;1008.26;;;22.45;81.42
64230;BME280;50547;49.498;0.092;2023-08-24T03:10:06;1008.18;;;22.53;80.98
64230;BME280;50547;49.498;0.092;2023-08-24T03:12:40;1008.20;;;22.61;80.61
64230;BME280;50547;49.498;0.092;2023-08-24T03:15:10;1008.12;;;22.54;81.29
64230;BME280;50547;49.498;0.092;2023-08-24T03:17:39;1008.18;;;22.58;81.06
64230;BME280;50547;49.498;0.092;2023-08-24T03:20:09;1008.24;;;22.69;80.61
64230;BME280;50547;49.498;0.092;2023-08-24T03:22:38;1008.28;;;22.78;80.24
64230;BME280;50547;49.498;0.092;2023-08-24T03:25:08;1008.32;;;22.92;79.78
64230;BME280;50547;49.498;0.092;2023-08-24T03:27:38;1008.34;;;22.95;79.48
64230;BME280;50547;49.498;0.092;2023-08-24T03:30:08;1008.32;;;23.01;79.31
64230;BME280;50547;49.498;0.092;2023-08-24T03:32:37;1008.30;;;23.02;79.35
64230;BME280;50547;49.498;0.092;2023-08-24T03:35:07;1008.28;;;23.01;79.64
64230;BME280;50547;49.498;0.092;2023-08-24T03:37:36;1008.30;;;23.00;79.73
64230;BME280;50547;49.498;0.092;2023-08-24T03:40:06;1008.28;;;23.10;79.18
64230;BME280;50547;49.498;0.092;2023-08-24T03:42:36;1008.28;;;23.06;79.48
64230;BME280;50547;49.498;0.092;2023-08-24T03:45:06;1008.22;;;23.18;78.90
64230;BME280;50547;49.498;0.092;2023-08-24T03:47:35;1008.16;;;23.26;78.50
64230;BME280;50547;49.498;0.092;2023-08-24T03:50:05;1008.12;;;23.29;78.63
64230;BME280;50547;49.498;0.092;2023-08-24T03:52:34;1008.12;;;23.30;78.56
64230;BME280;50547;49.498;0.092;2023-08-24T03:55:04;1008.10;;;23.33;78.40
64230;BME280;50547;49.498;0.092;2023-08-24T03:57:34;1008.12;;;23.33;78.42
64230;BME280;50547;49.498;0.092;2023-08-24T04:00:04;1008.16;;;23.36;78.30
64230;BME280;50547;49.498;0.092;2023-08-24T04:02:34;1008.18;;;23.44;77.93
64230;BME280;50547;49.498;0.092;2023-08-24T04:05:03;1008.18;;;23.49;77.73
64230;BME280;50547;49.498;0.092;2023-08-24T04:07:33;1008.18;;;23.56;77.38
64230;BME280;50547;49.498;0.092;2023-08-24T04:10:02;1008.14;;;23.54;77.71
64230;BME280;50547;49.498;0.092;2023-08-24T04:12:31;1008.10;;;23.62;77.34
64230;BME280;50547;49.498;0.092;2023-08-24T04:15:01;1008.08;;;23.70;76.98
64230;BME280;50547;49.498;0.092;2023-08-24T04:17:30;1007.98;;;23.78;76.65
64230;BME280;50547;49.498;0.092;2023-08-24T04:19:59;1007.90;;;23.78;76.75
64230;BME280;50547;49.498;0.092;2023-08-24T04:22:24;1007.84;;;23.84;76.88
64230;BME280;50547;49.498;0.092;2023-08-24T04:24:54;1007.80;;;23.89;76.45
64230;BME280;50547;49.498;0.092;2023-08-24T04:27:23;1007.96;;;23.91;76.43
64230;BME280;50547;49.498;0.092;2023-08-24T04:29:48;1008.12;;;23.98;76.27
64230;BME280;50547;49.498;0.092;2023-08-24T04:32:18;1008.24;;;24.09;76.10
64230;BME280;50547;49.498;0.092;2023-08-24T04:34:47;1008.30;;;24.21;75.63
64230;BME280;50547;49.498;0.092;2023-08-24T04:37:13;1008.20;;;24.14;75.83
64230;BME280;50547;49.498;0.092;2023-08-24T04:39:42;1008.12;;;23.99;76.67
64230;BME280;50547;49.498;0.092;2023-08-24T04:42:08;1007.88;;;23.83;77.59
64230;BME280;50547;49.498;0.092;2023-08-24T04:44:37;1007.80;;;23.76;77.93
64230;BME280;50547;49.498;0.092;2023-08-24T04:47:06;1007.90;;;23.97;76.92
64230;BME280;50547;49.498;0.092;2023-08-24T04:49:32;1007.88;;;24.04;76.55
64230;BME280;50547;49.498;0.092;2023-08-24T04:52:01;1007.84;;;24.13;75.96
64230;BME280;50547;49.498;0.092;2023-08-24T04:54:32;1007.80;;;24.08;76.27
64230;BME280;50547;49.498;0.092;2023-08-24T04:57:01;1007.88;;;24.08;76.60
64230;BME280;50547;49.498;0.092;2023-08-24T04:59:30;1008.06;;;24.48;75.39
64230;BME280;50547;49.498;0.092;2023-08-24T05:01:59;1008.14;;;24.61;75.08
64230;BME280;50547;49.498;0.092;2023-08-24T05:04:29;1008.28;;;24.75;74.13
64230;BME280;50547;49.498;0.092;2023-08-24T05:06:58;1008.34;;;24.85;74.22
64230;BME280;50547;49.498;0.092;2023-08-24T05:09:24;1008.30;;;24.98;73.44
64230;BME280;50547;49.498;0.092;2023-08-24T05:11:53;1008.32;;;25.07;73.56
64230;BME280;50547;49.498;0.092;2023-08-24T05:14:23;1008.53;;;25.27;73.42
64230;BME280;50547;49.498;0.092;2023-08-24T05:16:48;1008.59;;;25.37;73.02
64230;BME280;50547;49.498;0.092;2023-08-24T05:19:18;1008.79;;;25.26;74.55
64230;BME280;50547;49.498;0.092;2023-08-24T05:21:47;1008.85;;;24.97;77.36
64230;BME280;50547;49.498;0.092;2023-08-24T05:24:13;1009.59;;;24.15;83.25
64230;BME280;50547;49.498;0.092;2023-08-24T05:26:42;1010.32;;;23.17;89.62
64230;BME280;50547;49.498;0.092;2023-08-24T05:29:11;1010.81;;;22.38;91.47
64230;BME280;50547;49.498;0.092;2023-08-24T05:31:40;1010.79;;;22.15;91.50
64230;BME280;50547;49.498;0.092;2023-08-24T05:34:09;1011.07;;;21.57;94.08
64230;BME280;50547;49.498;0.092;2023-08-24T05:36:38;1011.03;;;21.42;94.50
64230;BME280;50547;49.498;0.092;2023-08-24T05:39:08;1011.11;;;21.35;94.16
64230;BME280;50547;49.498;0.092;2023-08-24T05:41:37;1011.36;;;21.33;93.60
64230;BME280;50547;49.498;0.092;2023-08-24T05:44:06;1011.13;;;21.26;93.64
64230;BME280;50547;49.498;0.092;2023-08-24T05:46:35;1010.10;;;21.25;93.34
64230;BME280;50547;49.498;0.092;2023-08-24T05:49:04;1009.63;;;21.49;92.32
64230;BME280;50547;49.498;0.092;2023-08-24T05:51:34;1008.81;;;21.53;92.49
64230;BME280;50547;49.498;0.092;2023-08-24T05:54:03;1008.18;;;21.53;92.59
64230;BME280;50547;49.498;0.092;2023-08-24T05:56:32;1007.45;;;21.42;93.11
64230;BME280;50547;49.498;0.092;2023-08-24T05:59:01;1007.63;;;21.46;92.29
64230;BME280;50547;49.498;0.092;2023-08-24T06:01:31;1008.18;;;21.47;92.12
64230;BME280;50547;49.498;0.092;2023-08-24T06:04:00;1008.12;;;21.63;91.92
64230;BME280;50547;49.498;0.092;2023-08-24T06:06:29;1008.42;;;21.86;91.55
64230;BME280;50547;49.498;0.092;2023-08-24T06:08:58;1008.83;;;21.82;91.92
64230;BME280;50547;49.498;0.092;2023-08-24T06:11:24;1008.65;;;21.85;92.18
64230;BME280;50547;49.498;0.092;2023-08-24T06:13:53;1008.48;;;21.83;92.15
64230;BME280;50547;49.498;0.092;2023-08-24T06:16:23;1008.36;;;21.78;92.35
64230;BME280;50547;49.498;0.092;2023-08-24T06:18:52;1008.38;;;21.69;92.88
64230;BME280;50547;49.498;0.092;2023-08-24T06:21:21;1008.52;;;21.62;93.13
64230;BME280;50547;49.498;0.092;2023-08-24T06:23:47;1008.48;;;21.61;92.63
64230;BME280;50547;49.498;0.092;2023-08-24T06:26:17;1007.76;;;21.55;92.50
64230;BME280;50547;49.498;0.092;2023-08-24T06:28:46;1007.43;;;21.52;92.28
64230;BME280;50547;49.498;0.092;2023-08-24T06:31:16;1007.49;;;21.51;92.34
64230;BME280;50547;49.498;0.092;2023-08-24T06:33:45;1007.57;;;21.51;92.56
64230;BME280;50547;49.498;0.092;2023-08-24T06:36:14;1007.61;;;21.67;92.36
64230;BME280;50547;49.498;0.092;2023-08-24T06:38:43;1007.55;;;21.72;92.36
64230;BME280;50547;49.498;0.092;2023-08-24T06:41:12;1007.37;;;21.68;91.93
64230;BME280;50547;49.498;0.092;2023-08-24T06:43:41;1007.47;;;21.57;92.63
64230;BME280;50547;49.498;0.092;2023-08-24T06:46:10;1007.63;;;21.64;92.47
64230;BME280;50547;49.498;0.092;2023-08-24T06:48:39;1007.82;;;21.87;91.75
64230;BME280;50547;49.498;0.092;2023-08-24T06:51:10;1008.10;;;21.95;91.81
64230;BME280;50547;49.498;0.092;2023-08-24T06:53:39;1008.06;;;21.92;91.66
64230;BME280;50547;49.498;0.092;2023-08-24T06:56:08;1007.88;;;21.83;91.59
64230;BME280;50547;49.498;0.092;2023-08-24T06:58:37;1007.78;;;21.82;91.17
64230;BME280;50547;49.498;0.092;2023-08-24T07:01:07;1007.68;;;21.79;91.29
64230;BME280;50547;49.498;0.092;2023-08-24T07:03:36;1007.43;;;21.64;91.60
64230;BME280;50547;49.498;0.092;2023-08-24T07:06:05;1007.41;;;21.65;91.34
64230;BME280;50547;49.498;0.092;2023-08-24T07:08:35;1007.20;;;21.65;90.83
64230;BME280;50547;49.498;0.092;2023-08-24T07:11:04;1007.27;;;21.55;91.42
64230;BME280;50547;49.498;0.092;2023-08-24T07:13:33;1007.51;;;21.59;91.13
64230;BME280;50547;49.498;0.092;2023-08-24T07:16:02;1007.65;;;21.58;91.22
64230;BME280;50547;49.498;0.092;2023-08-24T07:18:31;1007.78;;;21.54;91.48
64230;BME280;50547;49.498;0.092;2023-08-24T07:21:01;1007.82;;;21.54;91.45
64230;BME280;50547;49.498;0.092;2023-08-24T07:23:30;1007.72;;;21.43;92.39
64230;BME280;50547;49.498;0.092;2023-08-24T07:25:59;1007.72;;;21.41;92.54
64230;BME280;50547;49.498;0.092;2023-08-24T07:28:28;1007.78;;;21.40;92.40
64230;BME280;50547;49.498;0.092;2023-08-24T07:30:57;1007.92;;;21.41;92.01
64230;BME280;50547;49.498;0.092;2023-08-24T07:33:26;1008.06;;;21.42;92.29
64230;BME280;50547;49.498;0.092;2023-08-24T07:35:55;1007.92;;;21.36;92.57
64230;BME280;50547;49.498;0.092;2023-08-24T07:38:30;1008.14;;;21.42;92.42
64230;BME280;50547;49.498;0.092;2023-08-24T07:40:59;1008.10;;;21.45;92.47
64230;BME280;50547;49.498;0.092;2023-08-24T07:43:28;1008.10;;;21.53;92.16
64230;BME280;50547;49.498;0.092;2023-08-24T07:45:57;1007.98;;;21.52;92.40
64230;BME280;50547;49.498;0.092;2023-08-24T07:48:26;1007.98;;;21.65;91.57
64230;BME280;50547;49.498;0.092;2023-08-24T07:50:56;1008.24;;;21.65;91.35
64230;BME280;50547;49.498;0.092;2023-08-24T07:53:25;1008.57;;;21.79;91.31
64230;BME280;50547;49.498;0.092;2023-08-24T07:55:54;1008.65;;;21.92;91.07
64230;BME280;50547;49.498;0.092;2023-08-24T07:58:23;1008.52;;;22.09;90.73
64230;BME280;50547;49.498;0.092;2023-08-24T08:00:54;1008.40;;;22.06;91.08
64230;BME280;50547;49.498;0.092;2023-08-24T08:03:23;1008.61;;;22.10;91.19
64230;BME280;50547;49.498;0.092;2023-08-24T08:05:52;1008.91;;;22.20;91.05
64230;BME280;50547;49.498;0.092;2023-08-24T08:08:21;1008.81;;;22.33;90.66
64230;BME280;50547;49.498;0.092;2023-08-24T08:10:58;1008.83;;;22.33;90.84
64230;BME280;50547;49.498;0.092;2023-08-24T08:13:27;1008.91;;;22.22;91.33
64230;BME280;50547;49.498;0.092;2023-08-24T08:16:00;1008.87;;;22.23;91.07
64230;BME280;50547;49.498;0.092;2023-08-24T08:18:31;1008.59;;;22.18;91.25
64230;BME280;50547;49.498;0.092;2023-08-24T08:21:00;1008.61;;;22.12;91.94
64230;BME280;50547;49.498;0.092;2023-08-24T08:23:30;1008.81;;;22.36;90.88
64230;BME280;50547;49.498;0.092;2023-08-24T08:25:59;1008.73;;;22.53;90.39
64230;BME280;50547;49.498;0.092;2023-08-24T08:28:28;1008.46;;;22.37;91.33
64230;BME280;50547;49.498;0.092;2023-08-24T08:30:57;1008.46;;;22.41;91.08
64230;BME280;50547;49.498;0.092;2023-08-24T08:33:26;1007.94;;;22.18;92.24
64230;BME280;50547;49.498;0.092;2023-08-24T08:35:56;1007.92;;;21.99;92.58
64230;BME280;50547;49.498;0.092;2023-08-24T08:38:25;1008.08;;;22.00;92.52
64230;BME280;50547;49.498;0.092;2023-08-24T08:40:56;1007.98;;;22.21;91.41
64230;BME280;50547;49.498;0.092;2023-08-24T08:43:27;1007.35;;;22.04;92.29
64230;BME280;50547;49.498;0.092;2023-08-24T08:45:56;1007.12;;;21.93;93.05
64230;BME280;50547;49.498;0.092;2023-08-24T08:48:25;1007.12;;;21.94;92.87
64230;BME280;50547;49.498;0.092;2023-08-24T08:50:54;1007.14;;;21.95;92.71
64230;BME280;50547;49.498;0.092;2023-08-24T08:53:24;1007.21;;;22.09;92.06
64230;BME280;50547;49.498;0.092;2023-08-24T08:55:54;1007.27;;;22.12;91.98
64230;BME280;50547;49.498;0.092;2023-08-24T08:58:24;1007.37;;;22.29;91.45
64230;BME280;50547;49.498;0.092;2023-08-24T09:00:54;1007.57;;;22.41;90.96
64230;BME280;50547;49.498;0.092;2023-08-24T09:03:23;1007.53;;;22.55;91.10
64230;BME280;50547;49.498;0.092;2023-08-24T09:05:52;1007.53;;;22.46;91.64
64230;BME280;50547;49.498;0.092;2023-08-24T09:08:22;1007.49;;;22.54;91.23
64230;BME280;50547;49.498;0.092;2023-08-24T09:10:51;1007.35;;;22.60;90.92
64230;BME280;50547;49.498;0.092;2023-08-24T09:13:21;1007.12;;;22.50;91.55
64230;BME280;50547;49.498;0.092;2023-08-24T09:15:51;1007.43;;;22.39;92.11
64230;BME280;50547;49.498;0.092;2023-08-24T09:18:20;1007.45;;;22.38;91.95
64230;BME280;50547;49.498;0.092;2023-08-24T09:20:51;1007.43;;;22.36;91.77
64230;BME280;50547;49.498;0.092;2023-08-24T09:23:20;1007.51;;;22.42;91.41
64230;BME280;50547;49.498;0.092;2023-08-24T09:25:50;1007.47;;;22.47;91.28
64230;BME280;50547;49.498;0.092;2023-08-24T09:28:22;1007.41;;;22.35;91.82
64230;BME280;50547;49.498;0.092;2023-08-24T09:30:53;1007.61;;;22.43;91.32
64230;BME280;50547;49.498;0.092;2023-08-24T09:33:22;1007.49;;;22.55;90.99
64230;BME280;50547;49.498;0.092;2023-08-24T09:35:52;1007.35;;;22.31;91.96
64230;BME280;50547;49.498;0.092;2023-08-24T09:38:23;1007.59;;;22.28;92.01
64230;BME280;50547;49.498;0.092;2023-08-24T09:40:53;1007.70;;;22.35;91.66
64230;BME280;50547;49.498;0.092;2023-08-24T09:43:23;1007.59;;;22.43;91.25
64230;BME280;50547;49.498;0.092;2023-08-24T09:45:54;1007.53;;;22.36;91.66
64230;BME280;50547;49.498;0.092;2023-08-24T09:48:24;1007.57;;;22.32;91.88
64230;BME280;50547;49.498;0.092;2023-08-24T09:50:55;1007.49;;;22.38;91.62
64230;BME280;50547;49.498;0.092;2023-08-24T09:53:27;1007.65;;;22.42;91.67
64230;BME280;50547;49.498;0.092;2023-08-24T09:55:59;1007.67;;;22.40;91.83
64230;BME280;50547;49.498;0.092;2023-08-24T09:58:29;1007.51;;;22.36;92.02
64230;BME280;50547;49.498;0.092;2023-08-24T10:00:58;1007.59;;;22.44;91.88
64230;BME280;50547;49.498;0.092;2023-08-24T10:03:30;1007.92;;;22.68;90.76
64230;BME280;50547;49.498;0.092;2023-08-24T10:06:01;1008.08;;;22.82;90.40
64230;BME280;50547;49.498;0.092;2023-08-24T10:08:35;1007.94;;;22.88;90.45
64230;BME280;50547;49.498;0.092;2023-08-24T10:11:06;1008.12;;;22.93;90.56
64230;BME280;50547;49.498;0.092;2023-08-24T10:13:41;1008.26;;;23.08;90.02
64230;BME280;50547;49.498;0.092;2023-08-24T10:16:13;1008.16;;;23.13;90.03
64230;BME280;50547;49.498;0.092;2023-08-24T10:18:43;1008.10;;;22.99;90.59
64230;BME280;50547;49.498;0.092;2023-08-24T10:21:13;1008.14;;;23.01;90.43
64230;BME280;50547;49.498;0.092;2023-08-24T10:23:43;1008.08;;;23.07;90.07
64230;BME280;50547;49.498;0.092;2023-08-24T10:26:14;1007.92;;;23.12;89.82
64230;BME280;50547;49.498;0.092;2023-08-24T10:28:44;1007.92;;;23.15;89.90
64230;BME280;50547;49.498;0.092;2023-08-24T10:31:14;1007.74;;;23.13;90.09
64230;BME280;50547;49.498;0.092;2023-08-24T10:33:45;1007.41;;;23.03;90.77
64230;BME280;50547;49.498;0.092;2023-08-24T10:36:15;1007.21;;;22.98;91.00
64230;BME280;50547;49.498;0.092;2023-08-24T10:38:44;1007.14;;;22.84;91.60
64230;BME280;50547;49.498;0.092;2023-08-24T10:41:14;1007.43;;;22.82;91.67
64230;BME280;50547;49.498;0.092;2023-08-24T10:43:48;1007.76;;;23.02;90.53
64230;BME280;50547;49.498;0.092;2023-08-24T10:46:18;1007.94;;;23.19;89.83
64230;BME280;50547;49.498;0.092;2023-08-24T10:49:04;1008.30;;;23.51;88.97
64230;BME280;50547;49.498;0.092;2023-08-24T10:51:43;1008.06;;;23.64;89.00
64230;BME280;50547;49.498;0.092;2023-08-24T10:54:14;1007.92;;;23.46;89.80
64230;BME280;50547;49.498;0.092;2023-08-24T10:56:52;1007.92;;;23.46;89.72
64230;BME280;50547;49.498;0.092;2023-08-24T10:59:22;1008.06;;;23.54;89.47
64230;BME280;50547;49.498;0.092;2023-08-24T11:01:55;1008.18;;;23.69;88.63
64230;BME280;50547;49.498;0.092;2023-08-24T11:04:25;1008.26;;;24.03;87.69
64230;BME280;50547;49.498;0.092;2023-08-24T11:06:55;1008.44;;;24.08;87.83
64230;BME280;50547;49.498;0.092;2023-08-24T11:09:25;1008.59;;;24.17;87.82
64230;BME280;50547;49.498;0.092;2023-08-24T11:11:57;1008.67;;;24.01;88.02
64230;BME280;50547;49.498;0.092;2023-08-24T11:14:27;1008.52;;;23.86;87.88
64230;BME280;50547;49.498;0.092;2023-08-24T11:16:53;1008.36;;;24.07;87.10
64230;BME280;50547;49.498;0.092;2023-08-24T11:19:26;1008.10;;;24.12;86.75
64230;BME280;50547;49.498;0.092;2023-08-24T11:21:55;1007.84;;;24.08;86.94
64230;BME280;50547;49.498;0.092;2023-08-24T11:24:25;1007.51;;;24.03;86.67
64230;BME280;50547;49.498;0.092;2023-08-24T11:26:54;1006.65;;;23.87;87.01
64230;BME280;50547;49.498;0.092;2023-08-24T11:29:24;1006.35;;;23.57;88.31
64230;BME280;50547;49.498;0.092;2023-08-24T11:31:54;1006.33;;;23.62;87.43
64230;BME280;50547;49.498;0.092;2023-08-24T11:34:27;1006.43;;;23.56;87.08
64230;BME280;50547;49.498;0.092;2023-08-24T11:36:56;1006.45;;;23.64;86.68
64230;BME280;50547;49.498;0.092;2023-08-24T11:39:25;1006.59;;;23.72;86.50
64230;BME280;50547;49.498;0.092;2023-08-24T11:41:59;1006.61;;;23.82;86.00
64230;BME280;50547;49.498;0.092;2023-08-24T11:44:29;1006.43;;;23.83;85.88
64230;BME280;50547;49.498;0.092;2023-08-24T11:46:59;1006.39;;;23.91;85.59
64230;BME280;50547;49.498;0.092;2023-08-24T11:49:28;1006.33;;;24.10;85.29
64230;BME280;50547;49.498;0.092;2023-08-24T11:51:57;1006.39;;;24.24;85.23
64230;BME280;50547;49.498;0.092;2023-08-24T11:54:26;1006.39;;;24.17;85.10
64230;BME280;50547;49.498;0.092;2023-08-24T11:56:55;1006.45;;;24.42;84.73
64230;BME280;50547;49.498;0.092;2023-08-24T11:59:26;1006.33;;;24.62;84.02
64230;BME280;50547;49.498;0.092;2023-08-24T12:01:55;1006.41;;;24.69;84.08
64230;BME280;50547;49.498;0.092;2023-08-24T12:04:24;1006.49;;;24.50;84.40
64230;BME280;50547;49.498;0.092;2023-08-24T12:06:54;1006.53;;;24.59;83.44
64230;BME280;50547;49.498;0.092;2023-08-24T12:09:23;1006.47;;;24.61;84.57
64230;BME280;50547;49.498;0.092;2023-08-24T12:11:57;1006.37;;;24.73;84.46
64230;BME280;50547;49.498;0.092;2023-08-24T12:14:26;1006.27;;;24.70;84.39
64230;BME280;50547;49.498;0.092;2023-08-24T12:16:55;1006.08;;;24.80;84.17
64230;BME280;50547;49.498;0.092;2023-08-24T12:19:25;1006.00;;;24.84;83.46
64230;BME280;50547;49.498;0.092;2023-08-24T12:21:54;1005.90;;;25.09;81.92
64230;BME280;50547;49.498;0.092;2023-08-24T12:24:23;1005.80;;;25.20;81.43
64230;BME280;50547;49.498;0.092;2023-08-24T12:26:56;1005.80;;;25.37;80.54
64230;BME280;50547;49.498;0.092;2023-08-24T12:29:25;1005.90;;;25.57;79.77
64230;BME280;50547;49.498;0.092;2023-08-24T12:31:57;1005.92;;;26.07;78.88
64230;BME280;50547;49.498;0.092;2023-08-24T12:34:26;1005.96;;;26.22;77.94
64230;BME280;50547;49.498;0.092;2023-08-24T12:36:55;1005.98;;;26.14;77.85
64230;BME280;50547;49.498;0.092;2023-08-24T12:39:24;1005.96;;;26.35;77.54
64230;BME280;50547;49.498;0.092;2023-08-24T12:41:54;1005.90;;;26.64;76.73
64230;BME280;50547;49.498;0.092;2023-08-24T12:44:23;1005.86;;;26.83;75.70
64230;BME280;50547;49.498;0.092;2023-08-24T12:46:52;1005.79;;;26.98;75.50
64230;BME280;50547;49.498;0.092;2023-08-24T12:49:21;1005.75;;;27.07;74.79
64230;BME280;50547;49.498;0.092;2023-08-24T12:51:50;1005.75;;;27.38;73.91
64230;BME280;50547;49.498;0.092;2023-08-24T12:54:20;1005.77;;;27.55;72.54
64230;BME280;50547;49.498;0.092;2023-08-24T12:56:49;1005.80;;;28.04;71.03
64230;BME280;50547;49.498;0.092;2023-08-24T12:59:18;1005.82;;;28.21;70.59
64230;BME280;50547;49.498;0.092;2023-08-24T13:01:47;1005.82;;;28.62;69.00
64230;BME280;50547;49.498;0.092;2023-08-24T13:04:16;1005.82;;;28.82;68.21
64230;BME280;50547;49.498;0.092;2023-08-24T13:06:45;1005.65;;;29.11;67.47
64230;BME280;50547;49.498;0.092;2023-08-24T13:09:14;1005.57;;;28.94;68.02
64230;BME280;50547;49.498;0.092;2023-08-24T13:11:43;1005.51;;;29.12;67.34
64230;BME280;50547;49.498;0.092;2023-08-24T13:14:13;1005.35;;;29.30;67.22
64230;BME280;50547;49.498;0.092;2023-08-24T13:16:42;1005.27;;;29.15;67.97
64230;BME280;50547;49.498;0.092;2023-08-24T13:19:11;1005.29;;;28.97;68.05
64230;BME280;50547;49.498;0.092;2023-08-24T13:21:42;1005.41;;;29.39;66.39
64230;BME280;50547;49.498;0.092;2023-08-24T13:24:11;1005.51;;;29.78;64.62